createdAt,value
2023-02-11T00:01:37.539Z,103608.78
2023-02-11T00:04:08.820Z,103611.25
2023-02-11T00:06:37.997Z,103616.91
2023-02-11T00:09:06.522Z,103607.09
2023-02-11T00:11:34.553Z,103610.59
2023-02-11T00:14:04.915Z,103599.75
2023-02-11T00:16:34.935Z,103605.75
2023-02-11T00:19:06.916Z,103612.72
2023-02-11T00:21:36.960Z,103602.69
2023-02-11T00:24:04.471Z,103593.97
2023-02-11T00:26:34.766Z,103596.84
2023-02-11T00:29:05.485Z,103595.91
2023-02-11T00:31:33.691Z,103592.53
2023-02-11T00:34:05.938Z,103593.41
2023-02-11T00:36:33.286Z,103586.75
2023-02-11T00:39:01.135Z,103588.56
2023-02-11T00:41:28.778Z,103586.06
2023-02-11T00:43:56.035Z,103578.28
2023-02-11T00:46:28.588Z,103584.84
2023-02-11T00:48:58.049Z,103588.25
2023-02-11T00:51:27.211Z,103583.16
2023-02-11T00:53:55.172Z,103585.53
2023-02-11T00:56:23.698Z,103583.25
2023-02-11T00:59:54.983Z,103584.75
2023-02-11T01:02:23.046Z,103579.56
2023-02-11T01:04:51.167Z,103578.66
2023-02-11T01:07:21.729Z,103571.19
2023-02-11T01:09:49.312Z,103566.22
2023-02-11T01:12:19.098Z,103563.41
2023-02-11T01:14:49.613Z,103557.44
2023-02-11T01:17:19.865Z,103560.25
2023-02-11T01:19:50.672Z,103558.22
2023-02-11T01:22:18.017Z,103550.31
2023-02-11T01:24:50.053Z,103556.31
2023-02-11T01:27:18.177Z,103549.66
2023-02-11T01:29:48.024Z,103555.16
2023-02-11T01:32:15.617Z,103543.88
2023-02-11T01:34:43.130Z,103545.94
2023-02-11T01:37:10.478Z,103545.34
2023-02-11T01:39:37.973Z,103541.19
2023-02-11T01:42:06.135Z,103535.88
2023-02-11T01:44:37.781Z,103535.78
2023-02-11T01:47:06.786Z,103535.09
2023-02-11T01:49:36.859Z,103528.44
2023-02-11T01:52:07.347Z,103538.25
2023-02-11T01:54:59.312Z,103531.69
2023-02-11T01:57:30.406Z,103529.22
2023-02-11T02:00:04.672Z,103520.19
2023-02-11T02:03:01.144Z,103524.81
2023-02-11T02:05:48.194Z,103519.63
2023-02-11T02:08:23.657Z,103518.50
2023-02-11T02:10:59.736Z,103511.50
2023-02-11T02:13:30.895Z,103513.63
2023-02-11T02:16:04.217Z,103523.28
2023-02-11T02:18:51.512Z,103514.41
2023-02-11T02:21:56.212Z,103516.97
2023-02-11T02:24:26.359Z,103505.47
2023-02-11T02:27:02.516Z,103506.22
2023-02-11T02:30:02.980Z,103498.22
2023-02-11T02:32:51.520Z,103489.75
2023-02-11T02:35:48.679Z,103493.53
2023-02-11T02:38:57.056Z,103491.63
2023-02-11T02:41:40.203Z,103484.50
2023-02-11T02:44:08.937Z,103484.59
2023-02-11T02:46:37.326Z,103471.44
2023-02-11T02:49:12.757Z,103481.78
2023-02-11T02:52:16.279Z,103474.47
2023-02-11T02:55:05.184Z,103468.38
2023-02-11T02:58:09.102Z,103473.06
2023-02-11T03:01:13.356Z,103465.75
2023-02-11T03:04:00.528Z,103465.44
2023-02-11T03:07:03.180Z,103462.94
2023-02-11T03:09:45.338Z,103455.97
2023-02-11T03:12:14.035Z,103462.53
2023-02-11T03:14:42.263Z,103458.16
2023-02-11T03:17:10.880Z,103455.50
2023-02-11T03:19:44.268Z,103456.75
2023-02-11T03:22:24.383Z,103458.22
2023-02-11T03:24:52.091Z,103457.53
2023-02-11T03:27:26.634Z,103458.09
2023-02-11T03:30:07.045Z,103459.69
2023-02-11T03:32:44.858Z,103453.44
2023-02-11T03:35:33.147Z,103457.72
2023-02-11T03:38:06.333Z,103450.75
2023-02-11T03:40:38.701Z,103448.53
2023-02-11T03:43:15.000Z,103456.59
2023-02-11T03:45:42.381Z,103458.28
2023-02-11T03:48:16.196Z,103458.84
2023-02-11T03:50:48.583Z,103449.63
2023-02-11T03:53:17.909Z,103454.00
2023-02-11T03:55:48.102Z,103455.94
2023-02-11T03:58:15.711Z,103452.88
2023-02-11T04:00:46.915Z,103456.31
2023-02-11T04:03:21.285Z,103454.75
2023-02-11T04:06:04.338Z,103445.06
2023-02-11T04:08:36.768Z,103450.25
2023-02-11T04:11:08.350Z,103449.00
2023-02-11T04:13:45.104Z,103455.75
2023-02-11T04:16:16.753Z,103458.13
2023-02-11T04:18:44.859Z,103461.63
2023-02-11T04:21:25.552Z,103454.25
2023-02-11T04:23:56.480Z,103458.78
2023-02-11T04:26:32.854Z,103458.28
2023-02-11T04:29:11.239Z,103453.34
2023-02-11T04:31:44.450Z,103452.34
2023-02-11T04:34:24.706Z,103460.38
2023-02-11T04:36:55.314Z,103455.75
2023-02-11T04:39:24.022Z,103457.72
2023-02-11T04:44:39.310Z,103459.63
2023-02-11T04:47:09.469Z,103457.03
2023-02-11T04:49:46.492Z,103458.84
2023-02-11T04:52:19.457Z,103467.66
2023-02-11T04:54:59.432Z,103469.72
2023-02-11T04:57:28.639Z,103473.78
2023-02-11T04:59:56.462Z,103478.16
2023-02-11T05:02:24.085Z,103479.47
2023-02-11T05:04:53.943Z,103476.00
2023-02-11T05:07:27.725Z,103480.38
2023-02-11T05:09:58.643Z,103478.31
2023-02-11T05:12:38.149Z,103475.25
2023-02-11T05:15:06.835Z,103475.13
2023-02-11T05:17:38.144Z,103475.91
2023-02-11T05:20:25.122Z,103473.06
2023-02-11T05:22:55.514Z,103475.63
2023-02-11T05:25:26.517Z,103479.78
2023-02-11T05:28:04.626Z,103485.22
2023-02-11T05:30:37.649Z,103482.13
2023-02-11T05:33:11.729Z,103484.06
2023-02-11T05:35:52.605Z,103484.31
2023-02-11T05:38:24.869Z,103486.78
2023-02-11T05:41:02.413Z,103483.72
2023-02-11T05:43:35.564Z,103487.84
2023-02-11T05:46:18.584Z,103486.97
2023-02-11T05:48:49.017Z,103490.06
2023-02-11T05:51:19.860Z,103495.63
2023-02-11T05:53:58.674Z,103495.47
2023-02-11T05:56:36.238Z,103498.06
2023-02-11T05:59:04.236Z,103496.25
2023-02-11T06:01:32.352Z,103485.66
2023-02-11T06:04:16.294Z,103492.41
2023-02-11T06:06:52.148Z,103493.63
2023-02-11T06:09:28.065Z,103491.59
2023-02-11T06:12:08.431Z,103487.44
2023-02-11T06:14:52.044Z,103490.31
2023-02-11T06:17:26.162Z,103497.53
2023-02-11T06:20:03.351Z,103494.94
2023-02-11T06:22:35.084Z,103495.72
2023-02-11T06:25:08.032Z,103496.38
2023-02-11T06:27:46.714Z,103493.28
2023-02-11T06:30:39.104Z,103498.44
2023-02-11T06:33:16.624Z,103500.00
2023-02-11T06:35:51.497Z,103501.91
2023-02-11T06:38:25.364Z,103500.00
2023-02-11T06:41:00.925Z,103498.19
2023-02-11T06:43:40.615Z,103499.09
2023-02-11T06:46:11.137Z,103507.38
2023-02-11T06:48:51.193Z,103506.47
2023-02-11T06:51:24.709Z,103509.53
2023-02-11T06:53:55.721Z,103507.19
2023-02-11T06:56:38.030Z,103509.53
2023-02-11T06:59:06.705Z,103515.72
2023-02-11T07:01:34.964Z,103508.63
2023-02-11T07:04:07.763Z,103517.03
2023-02-11T07:06:38.176Z,103521.94
2023-02-11T07:09:09.772Z,103512.00
2023-02-11T07:11:37.883Z,103521.53
2023-02-11T07:14:11.750Z,103515.88
2023-02-11T07:16:42.539Z,103515.09
2023-02-11T07:19:10.708Z,103512.78
2023-02-11T07:21:44.562Z,103511.75
2023-02-11T07:24:13.714Z,103513.69
2023-02-11T07:26:47.520Z,103513.81
2023-02-11T07:29:21.460Z,103520.41
2023-02-11T07:32:06.454Z,103523.47
2023-02-11T07:34:39.512Z,103520.66
2023-02-11T07:37:08.623Z,103521.44
2023-02-11T07:39:44.379Z,103522.34
2023-02-11T07:42:20.767Z,103516.13
2023-02-11T07:44:51.548Z,103512.81
2023-02-11T07:47:26.583Z,103525.84
2023-02-11T07:49:57.454Z,103521.06
2023-02-11T07:52:28.952Z,103531.63
2023-02-11T07:55:04.699Z,103530.00
2023-02-11T07:57:37.286Z,103535.28
2023-02-11T08:00:21.194Z,103533.72
2023-02-11T08:02:51.714Z,103539.91
2023-02-11T08:05:31.772Z,103540.16
2023-02-11T08:08:09.522Z,103550.25
2023-02-11T08:10:38.638Z,103550.63
2023-02-11T08:13:12.886Z,103545.31
2023-02-11T08:15:43.863Z,103544.66
2023-02-11T08:18:19.233Z,103548.94
2023-02-11T08:23:28.572Z,103542.06
2023-02-11T08:25:56.316Z,103530.94
2023-02-11T08:28:23.939Z,103530.81
2023-02-11T08:30:52.218Z,103535.06
2023-02-11T08:33:24.520Z,103530.13
2023-02-11T08:35:55.635Z,103525.97
2023-02-11T08:38:30.491Z,103524.53
2023-02-11T08:41:03.728Z,103529.28
2023-02-11T08:43:38.513Z,103523.88
2023-02-11T08:46:08.318Z,103533.47
2023-02-11T08:48:39.117Z,103520.75
2023-02-11T08:54:06.792Z,103515.03
2023-02-11T08:56:34.505Z,103514.53
2023-02-11T08:59:04.984Z,103510.44
2023-02-11T09:01:39.458Z,103515.59
2023-02-11T09:04:13.323Z,103509.47
2023-02-11T09:06:41.894Z,103510.69
2023-02-11T09:09:19.129Z,103506.38
2023-02-11T09:11:50.064Z,103509.75
2023-02-11T09:14:23.446Z,103509.91
2023-02-11T09:17:02.926Z,103497.44
2023-02-11T09:19:46.504Z,103507.06
2023-02-11T09:22:29.914Z,103506.03
2023-02-11T09:25:04.275Z,103504.34
2023-02-11T09:27:39.093Z,103490.13
2023-02-11T09:30:07.792Z,103494.53
2023-02-11T09:32:36.179Z,103498.03
2023-02-11T09:35:09.484Z,103496.25
2023-02-11T09:38:06.642Z,103510.25
2023-02-11T09:40:47.605Z,103513.22
2023-02-11T09:43:52.512Z,103513.16
2023-02-11T09:46:25.057Z,103506.72
2023-02-11T09:49:06.651Z,103511.69
2023-02-11T09:51:52.507Z,103509.38
2023-02-11T09:54:54.750Z,103510.72
2023-02-11T09:57:56.479Z,103502.75
2023-02-11T10:00:31.801Z,103503.63
2023-02-11T10:03:43.054Z,103505.41
2023-02-11T10:09:50.243Z,103496.63
2023-02-11T10:12:55.304Z,103494.88
2023-02-11T10:15:57.329Z,103502.22
2023-02-11T10:18:40.059Z,103493.94
2023-02-11T10:21:32.272Z,103496.13
2023-02-11T10:24:13.590Z,103502.63
2023-02-11T10:26:42.438Z,103499.03
2023-02-11T10:32:39.510Z,103496.56
2023-02-11T10:35:19.336Z,103495.84
2023-02-11T10:37:58.926Z,103501.00
2023-02-11T10:40:33.159Z,103498.31
2023-02-11T10:43:48.029Z,103495.63
2023-02-11T10:49:52.094Z,103481.78
2023-02-11T10:52:52.442Z,103481.94
2023-02-11T10:55:31.062Z,103484.72
2023-02-11T10:58:28.111Z,103477.34
2023-02-11T11:01:08.040Z,103475.63
2023-02-11T11:03:48.877Z,103472.75
2023-02-11T11:06:34.553Z,103462.38
2023-02-11T11:09:10.315Z,103462.78
2023-02-11T11:11:54.325Z,103464.69
2023-02-11T11:18:20.856Z,103453.50
2023-02-11T11:21:12.968Z,103454.81
2023-02-11T11:23:48.966Z,103451.59
2023-02-11T11:26:47.605Z,103448.53
2023-02-11T11:29:34.963Z,103448.34
2023-02-11T11:32:19.557Z,103449.03
2023-02-11T11:35:04.551Z,103442.63
2023-02-11T11:38:07.052Z,103433.41
2023-02-11T11:40:42.882Z,103423.19
2023-02-11T11:43:13.502Z,103422.84
2023-02-11T11:46:05.879Z,103429.13
2023-02-11T11:48:52.767Z,103417.38
2023-02-11T11:51:26.679Z,103413.22
2023-02-11T11:54:09.271Z,103394.84
2023-02-11T11:57:25.794Z,103397.59
2023-02-11T11:59:59.958Z,103395.91
2023-02-11T12:02:53.630Z,103397.16
2023-02-11T12:05:55.566Z,103402.25
2023-02-11T12:09:03.786Z,103393.28
2023-02-11T12:15:14.883Z,103384.41
2023-02-11T12:17:55.722Z,103380.03
2023-02-11T12:20:35.862Z,103376.06
2023-02-11T12:23:50.452Z,103376.97
2023-02-11T12:26:29.893Z,103363.94
2023-02-11T12:29:26.985Z,103366.72
2023-02-11T12:32:21.740Z,103360.66
2023-02-11T12:35:30.100Z,103367.31
2023-02-11T12:38:37.036Z,103370.38
2023-02-11T12:41:57.800Z,103369.47
2023-02-11T12:44:34.046Z,103364.44
2023-02-11T12:47:37.441Z,103361.84
2023-02-11T12:50:40.599Z,103358.03
2023-02-11T12:53:39.813Z,103356.34
2023-02-11T12:56:43.713Z,103365.53
2023-02-11T12:59:55.355Z,103358.63
2023-02-11T13:02:41.667Z,103351.03
2023-02-11T13:05:41.508Z,103351.69
2023-02-11T13:08:23.819Z,103350.16
2023-02-11T13:11:11.954Z,103344.22
2023-02-11T13:14:16.049Z,103348.63
2023-02-11T13:16:51.055Z,103354.97
2023-02-11T13:19:54.723Z,103342.63
2023-02-11T13:23:00.465Z,103333.09
2023-02-11T13:26:02.270Z,103335.22
2023-02-11T13:32:50.260Z,103319.94
2023-02-11T13:35:39.428Z,103332.88
2023-02-11T13:38:45.228Z,103325.97
2023-02-11T13:41:40.429Z,103326.19
2023-02-11T13:44:33.813Z,103317.31
2023-02-11T13:47:33.266Z,103318.41
2023-02-11T13:50:17.606Z,103322.31
2023-02-11T13:53:16.224Z,103313.81
2023-02-11T13:58:51.652Z,103309.25
2023-02-11T14:05:27.283Z,103312.50
2023-02-11T14:11:59.118Z,103321.97
2023-02-11T14:14:36.770Z,103322.03
2023-02-11T14:17:34.590Z,103321.13
2023-02-11T14:20:44.918Z,103322.81
2023-02-11T14:23:36.663Z,103312.72
2023-02-11T14:26:54.107Z,103313.91
2023-02-11T14:29:30.903Z,103315.28
2023-02-11T14:36:14.692Z,103306.16
2023-02-11T14:39:07.550Z,103305.78
2023-02-11T14:41:42.744Z,103310.50
2023-02-11T14:44:46.326Z,103305.31
2023-02-11T14:47:37.166Z,103300.88
2023-02-11T14:50:17.291Z,103294.28
2023-02-11T14:52:51.857Z,103305.91
2023-02-11T15:01:37.935Z,103294.56
2023-02-11T15:04:14.074Z,103308.47
2023-02-11T15:06:58.651Z,103301.34
2023-02-11T15:09:52.373Z,103301.38
2023-02-11T15:12:24.649Z,103292.88
2023-02-11T15:14:57.800Z,103304.97
2023-02-11T15:17:33.217Z,103291.19
2023-02-11T15:20:02.967Z,103293.22
2023-02-11T15:22:40.715Z,103290.25
2023-02-11T15:25:17.786Z,103288.97
2023-02-11T15:27:56.308Z,103286.03
2023-02-11T15:30:26.935Z,103284.88
2023-02-11T15:33:03.929Z,103286.25
2023-02-11T15:35:44.746Z,103284.94
2023-02-11T15:38:14.000Z,103282.44
2023-02-11T15:40:53.878Z,103283.00
2023-02-11T15:43:23.495Z,103291.59
2023-02-11T15:46:02.369Z,103281.19
2023-02-11T15:48:38.031Z,103278.94
2023-02-11T15:51:36.668Z,103276.75
2023-02-11T15:54:20.304Z,103278.09
2023-02-11T15:56:52.913Z,103281.31
2023-02-11T15:59:38.628Z,103276.44
2023-02-11T16:02:23.620Z,103281.59
2023-02-11T16:05:09.377Z,103289.59
2023-02-11T16:07:50.741Z,103267.09
2023-02-11T16:10:29.795Z,103281.44
2023-02-11T16:13:01.969Z,103266.84
2023-02-11T16:15:42.134Z,103281.06
2023-02-11T16:18:37.292Z,103273.38
2023-02-11T16:21:21.140Z,103278.56
2023-02-11T16:24:01.607Z,103279.34
2023-02-11T16:27:04.382Z,103274.47
2023-02-11T16:29:39.451Z,103279.63
2023-02-11T16:32:33.606Z,103283.91
2023-02-11T16:35:11.847Z,103281.16
2023-02-11T16:37:51.560Z,103276.69
2023-02-11T16:40:21.631Z,103288.19
2023-02-11T16:42:50.119Z,103284.69
2023-02-11T16:45:24.632Z,103281.25
2023-02-11T16:47:58.638Z,103283.84
2023-02-11T16:50:36.694Z,103285.03
2023-02-11T16:53:10.602Z,103287.28
2023-02-11T16:55:44.470Z,103291.63
2023-02-11T16:58:27.789Z,103287.91
2023-02-11T17:01:02.532Z,103292.22
2023-02-11T17:03:47.253Z,103288.28
2023-02-11T17:06:26.263Z,103286.41
2023-02-11T17:08:58.494Z,103296.22
2023-02-11T17:11:30.649Z,103287.66
2023-02-11T17:13:59.628Z,103293.34
2023-02-11T17:16:37.660Z,103294.50
2023-02-11T17:19:07.194Z,103301.59
2023-02-11T17:21:40.607Z,103300.72
2023-02-11T17:24:14.266Z,103310.09
2023-02-11T17:26:53.681Z,103305.13
2023-02-11T17:29:24.224Z,103309.28
2023-02-11T17:31:58.174Z,103310.19
2023-02-11T17:34:35.077Z,103312.31
2023-02-11T17:37:13.619Z,103305.94
2023-02-11T17:39:47.490Z,103314.31
2023-02-11T17:42:19.817Z,103321.66
2023-02-11T17:44:55.007Z,103320.97
2023-02-11T17:47:22.514Z,103317.78
2023-02-11T17:49:50.269Z,103318.97
2023-02-11T17:52:18.522Z,103327.09
2023-02-11T17:54:46.159Z,103328.25
2023-02-11T17:57:13.997Z,103330.81
2023-02-11T17:59:44.350Z,103323.84
2023-02-11T18:02:13.150Z,103327.81
2023-02-11T18:04:43.718Z,103322.09
2023-02-11T18:07:13.462Z,103327.00
2023-02-11T18:09:44.245Z,103325.22
2023-02-11T18:12:25.801Z,103324.75
2023-02-11T18:14:59.868Z,103320.31
2023-02-11T18:17:46.356Z,103328.81
2023-02-11T18:20:29.773Z,103332.50
2023-02-11T18:23:10.251Z,103329.63
2023-02-11T18:25:58.100Z,103331.41
2023-02-11T18:28:32.619Z,103336.63
2023-02-11T18:37:16.115Z,103350.63
2023-02-11T18:39:48.952Z,103353.31
2023-02-11T18:42:24.301Z,103355.75
2023-02-11T18:45:00.411Z,103350.31
2023-02-11T18:47:34.815Z,103349.59
2023-02-11T18:50:18.703Z,103358.75
2023-02-11T18:52:52.836Z,103359.16
2023-02-11T18:55:49.384Z,103361.78
2023-02-11T18:58:26.130Z,103368.09
2023-02-11T19:01:03.991Z,103364.78
2023-02-11T19:03:41.937Z,103364.31
2023-02-11T19:06:29.779Z,103368.97
2023-02-11T19:09:20.642Z,103371.84
2023-02-11T19:12:17.744Z,103372.78
2023-02-11T19:15:26.157Z,103377.34
2023-02-11T19:18:03.359Z,103375.13
2023-02-11T19:20:36.188Z,103373.13
2023-02-11T19:23:20.374Z,103371.50
2023-02-11T19:26:14.917Z,103378.53
2023-02-11T19:28:45.446Z,103367.75
2023-02-11T19:31:22.332Z,103374.06
2023-02-11T19:33:54.706Z,103374.88
2023-02-11T19:36:42.277Z,103369.00
2023-02-11T19:39:33.124Z,103370.78
2023-02-11T19:42:02.534Z,103374.38
2023-02-11T19:44:45.666Z,103377.63
2023-02-11T19:47:34.209Z,103375.56
2023-02-11T19:50:19.287Z,103379.19
2023-02-11T19:52:54.528Z,103376.56
2023-02-11T19:55:37.330Z,103378.97
2023-02-11T19:58:46.328Z,103381.09
2023-02-11T20:01:32.855Z,103386.09
2023-02-11T20:04:08.790Z,103381.97
2023-02-11T20:06:57.484Z,103382.41
2023-02-11T20:09:29.422Z,103385.75
2023-02-11T20:12:55.011Z,103382.03
2023-02-11T20:15:33.875Z,103383.50
2023-02-11T20:18:02.105Z,103384.22
2023-02-11T20:20:46.262Z,103390.72
2023-02-11T20:23:30.765Z,103385.84
2023-02-11T20:26:08.435Z,103386.56
2023-02-11T20:28:39.710Z,103383.88
2023-02-11T20:31:08.218Z,103383.88
2023-02-11T20:33:39.025Z,103379.41
2023-02-11T20:36:19.195Z,103385.31
2023-02-11T20:38:50.419Z,103395.34
2023-02-11T20:41:36.956Z,103380.44
2023-02-11T20:44:25.935Z,103377.63
2023-02-11T20:47:16.620Z,103377.19
2023-02-11T20:49:50.280Z,103382.09
2023-02-11T20:52:49.519Z,103383.53
2023-02-11T20:55:25.361Z,103388.44
2023-02-11T20:58:01.985Z,103394.00
2023-02-11T21:00:52.626Z,103385.22
2023-02-11T21:03:44.822Z,103393.69
2023-02-11T21:06:21.754Z,103391.19
2023-02-11T21:09:03.772Z,103390.91
2023-02-11T21:11:40.176Z,103389.84
2023-02-11T21:14:24.550Z,103394.31
2023-02-11T21:17:10.270Z,103389.53
2023-02-11T21:19:44.971Z,103389.16
2023-02-11T21:22:18.603Z,103392.94
2023-02-11T21:24:57.973Z,103398.44
2023-02-11T21:30:35.943Z,103396.09
2023-02-11T21:33:33.491Z,103389.69
2023-02-11T21:36:08.697Z,103391.78
2023-02-11T21:38:51.924Z,103391.69
2023-02-11T21:41:30.590Z,103389.81
2023-02-11T21:44:14.316Z,103387.09
2023-02-11T21:46:44.061Z,103390.69
2023-02-11T21:52:16.338Z,103391.94
2023-02-11T21:54:54.848Z,103390.38
2023-02-11T21:57:28.767Z,103391.19
2023-02-11T22:00:10.939Z,103378.94
2023-02-11T22:02:58.874Z,103378.84
2023-02-11T22:05:32.021Z,103384.56
2023-02-11T22:08:16.687Z,103387.66
2023-02-11T22:10:58.095Z,103392.56
2023-02-11T22:13:51.592Z,103392.28
2023-02-11T22:16:31.856Z,103387.75
2023-02-11T22:19:15.281Z,103388.38
2023-02-11T22:21:58.714Z,103385.16
2023-02-11T22:24:47.228Z,103385.41
2023-02-11T22:27:20.172Z,103394.66
2023-02-11T22:29:56.872Z,103391.88
2023-02-11T22:32:30.714Z,103391.16
2023-02-11T22:35:13.997Z,103388.00
2023-02-11T22:38:00.824Z,103389.56
2023-02-11T22:40:47.436Z,103388.75
2023-02-11T22:43:31.260Z,103397.78
2023-02-11T22:46:28.148Z,103399.88
2023-02-11T22:49:07.565Z,103405.16
2023-02-11T22:51:50.615Z,103392.25
2023-02-11T22:54:25.058Z,103393.25
2023-02-11T22:56:59.594Z,103393.75
2023-02-11T22:59:47.759Z,103388.56
2023-02-11T23:02:20.009Z,103388.47
2023-02-11T23:04:56.397Z,103386.97
2023-02-11T23:07:28.390Z,103380.53
2023-02-11T23:09:59.226Z,103394.47
2023-02-11T23:12:33.451Z,103386.34
2023-02-11T23:15:05.277Z,103394.94
2023-02-11T23:17:41.672Z,103390.63
2023-02-11T23:20:26.516Z,103389.44
2023-02-11T23:22:59.143Z,103389.63
2023-02-11T23:25:26.600Z,103398.94
2023-02-11T23:27:57.519Z,103399.69
2023-02-11T23:30:41.844Z,103402.91
2023-02-11T23:33:11.887Z,103410.09
2023-02-11T23:35:46.656Z,103408.19
2023-02-11T23:38:21.646Z,103418.28
2023-02-11T23:43:42.357Z,103407.69
2023-02-11T23:49:22.132Z,103404.47
2023-02-11T23:51:58.553Z,103401.25
2023-02-11T23:54:32.451Z,103404.88
